Time;durP1;ratioP1;P1;durP2;ratioP2;P2;SDS_P1;SDS_P2;PMS_P1;PMS_P2;Temp;Humidity;BMP_temperature;BMP_pressure;BME280_temperature;BME280_humidity;BME280_pressure;Samples;Min_cycle;Max_cycle;Signal;HPM_P1;HPM_P2
2023/10/18 00:00:18;;;;;;;2.40;1.40;;;;;;;;;;5061981;27;89187;-59
2023/10/18 00:02:47;;;;;;;1.17;1.00;;;;;;;;;;5063242;27;88623;-60
2023/10/18 00:05:17;;;;;;;1.80;1.63;;;;;;;;;;5053869;27;87529;-60
2023/10/18 00:07:48;;;;;;;1.50;1.17;;;;;;;;;;5043909;27;89683;-60
2023/10/18 00:10:17;;;;;;;1.60;1.07;;;;;;;;;;5052048;27;89243;-60
2023/10/18 00:12:47;;;;;;;3.20;1.70;;;;;;;;;;5042926;27;88949;-59
2023/10/18 00:15:16;;;;;;;1.83;1.37;;;;;;;;;;5043297;27;87671;-60
2023/10/18 00:17:45;;;;;;;2.33;1.40;;;;;;;;;;5044132;27;89555;-60
2023/10/18 00:20:15;;;;;;;3.60;1.47;;;;;;;;;;5041852;27;89283;-60
2023/10/18 00:22:44;;;;;;;1.87;1.40;;;;;;;;;;5050128;27;89777;-60
2023/10/18 00:25:15;;;;;;;3.03;1.40;;;;;;;;;;5050168;27;87506;-60
2023/10/18 00:27:45;;;;;;;2.30;1.30;;;;;;;;;;5053190;27;89804;-60
2023/10/18 00:30:14;;;;;;;2.60;1.70;;;;;;;;;;5058586;27;89109;-59
2023/10/18 00:32:43;;;;;;;1.53;1.40;;;;;;;;;;5066233;27;87753;-60
2023/10/18 00:35:18;;;;;;;3.97;1.87;;;;;;;;;;5077001;27;87627;-59
2023/10/18 00:37:47;;;;;;;2.07;1.70;;;;;;;;;;5062499;27;89919;-59
2023/10/18 00:40:33;;;;;;;1.20;1.10;;;;;;;;;;5049244;27;88975;-60
2023/10/18 00:43:07;;;;;;;1.30;1.20;;;;;;;;;;5042281;27;88941;-60
2023/10/18 00:45:38;;;;;;;2.00;1.70;;;;;;;;;;5051835;27;87959;-59
2023/10/18 00:48:08;;;;;;;4.23;1.77;;;;;;;;;;5061972;27;89709;-59
2023/10/18 00:50:42;;;;;;;1.77;1.57;;;;;;;;;;5081848;27;89522;-61
2023/10/18 00:53:10;;;;;;;1.40;1.30;;;;;;;;;;5067219;27;88770;-60
2023/10/18 00:55:40;;;;;;;4.27;1.70;;;;;;;;;;5062623;27;87661;-60
2023/10/18 00:58:10;;;;;;;1.63;1.27;;;;;;;;;;5061040;27;89624;-59
2023/10/18 01:00:41;;;;;;;2.83;1.43;;;;;;;;;;5062079;27;88934;-59
2023/10/18 01:03:15;;;;;;;1.23;1.13;;;;;;;;;;5059894;27;88898;-59
2023/10/18 01:06:08;;;;;;;1.23;1.00;;;;;;;;;;5062185;27;87653;-60
2023/10/18 01:08:38;;;;;;;1.40;1.30;;;;;;;;;;5041097;27;88532;-59
2023/10/18 01:11:09;;;;;;;2.03;1.30;;;;;;;;;;5060807;27;90085;-59
2023/10/18 01:13:40;;;;;;;0.93;0.87;;;;;;;;;;5061520;27;90056;-60
2023/10/18 01:16:12;;;;;;;1.70;1.10;;;;;;;;;;5060854;27;87409;-59
2023/10/18 01:18:42;;;;;;;3.53;1.57;;;;;;;;;;5060954;27;89719;-59
2023/10/18 01:21:14;;;;;;;2.00;1.73;;;;;;;;;;5061175;27;87665;-59
2023/10/18 01:23:45;;;;;;;2.03;1.40;;;;;;;;;;5061380;27;88760;-60
2023/10/18 01:26:15;;;;;;;2.40;1.57;;;;;;;;;;5061272;27;87552;-59
2023/10/18 01:28:43;;;;;;;2.40;1.57;;;;;;;;;;5061704;27;89702;-60
2023/10/18 01:31:13;;;;;;;2.20;1.70;;;;;;;;;;5060658;27;87836;-60
2023/10/18 01:33:43;;;;;;;1.83;1.43;;;;;;;;;;5061129;27;90739;-59
2023/10/18 01:36:15;;;;;;;2.23;1.70;;;;;;;;;;5058902;27;87791;-59
2023/10/18 01:38:44;;;;;;;2.93;1.90;;;;;;;;;;5061204;27;88491;-59
2023/10/18 01:41:16;;;;;;;2.00;1.80;;;;;;;;;;5060647;27;87956;-59
2023/10/18 01:43:47;;;;;;;2.27;1.80;;;;;;;;;;5061350;27;88932;-59
2023/10/18 01:46:16;;;;;;;2.80;1.80;;;;;;;;;;5061220;27;87564;-59
2023/10/18 01:48:50;;;;;;;2.77;1.80;;;;;;;;;;5061147;27;89669;-59
2023/10/18 01:51:19;;;;;;;3.70;1.87;;;;;;;;;;5061195;27;89015;-60
2023/10/18 01:53:50;;;;;;;2.50;1.47;;;;;;;;;;5058562;27;88975;-60
2023/10/18 01:56:21;;;;;;;1.83;1.60;;;;;;;;;;5061511;27;87503;-59
2023/10/18 01:58:51;;;;;;;2.77;1.43;;;;;;;;;;5058234;27;89651;-59
2023/10/18 02:01:19;;;;;;;3.03;1.43;;;;;;;;;;5060270;27;88938;-59
2023/10/18 02:03:50;;;;;;;2.97;1.97;;;;;;;;;;5058521;27;88728;-59
2023/10/18 02:06:20;;;;;;;1.60;1.50;;;;;;;;;;5061208;27;87535;-59
2023/10/18 02:08:50;;;;;;;2.50;1.67;;;;;;;;;;5056491;27;89390;-59
2023/10/18 02:11:19;;;;;;;1.93;1.60;;;;;;;;;;5060752;27;87304;-60
2023/10/18 02:13:47;;;;;;;2.80;1.90;;;;;;;;;;5060917;27;87701;-59
2023/10/18 02:16:19;;;;;;;1.77;1.63;;;;;;;;;;5061032;27;89484;-59
2023/10/18 02:18:49;;;;;;;4.13;1.70;;;;;;;;;;5058271;27;89648;-59
2023/10/18 02:21:21;;;;;;;4.07;2.00;;;;;;;;;;5060573;27;87918;-59
2023/10/18 02:23:51;;;;;;;2.80;2.03;;;;;;;;;;5059456;27;91661;-60
2023/10/18 02:26:31;;;;;;;2.47;1.83;;;;;;;;;;5060318;27;87974;-60
2023/10/18 02:29:05;;;;;;;4.60;2.03;;;;;;;;;;5060412;27;89763;-60
2023/10/18 02:31:35;;;;;;;5.67;1.90;;;;;;;;;;5059540;27;89206;-59
2023/10/18 02:34:05;;;;;;;1.57;1.47;;;;;;;;;;5057546;27;88951;-59
2023/10/18 02:36:55;;;;;;;2.90;1.83;;;;;;;;;;5059499;27;87528;-59
2023/10/18 02:39:27;;;;;;;2.70;2.13;;;;;;;;;;5059995;27;88882;-60
2023/10/18 02:41:57;;;;;;;4.57;1.80;;;;;;;;;;5060583;27;89081;-60
2023/10/18 02:44:25;;;;;;;2.00;1.80;;;;;;;;;;5057703;27;88764;-59
2023/10/18 02:47:10;;;;;;;4.27;2.67;;;;;;;;;;5060440;27;87674;-59
2023/10/18 02:49:38;;;;;;;3.77;2.20;;;;;;;;;;5060151;27;89788;-59
2023/10/18 02:52:09;;;;;;;1.83;1.67;;;;;;;;;;5059287;27;89881;-59
2023/10/18 02:54:39;;;;;;;3.07;2.17;;;;;;;;;;5059950;27;89768;-59
2023/10/18 02:57:09;;;;;;;3.00;1.90;;;;;;;;;;5060246;27;87689;-60
2023/10/18 02:59:40;;;;;;;3.50;2.30;;;;;;;;;;5060047;27;88501;-60
2023/10/18 03:02:14;;;;;;;2.60;1.70;;;;;;;;;;5056413;27;88992;-60
2023/10/18 03:04:43;;;;;;;3.20;2.20;;;;;;;;;;5059741;27;87764;-59
2023/10/18 03:07:14;;;;;;;2.33;1.83;;;;;;;;;;5057044;27;87673;-60
2023/10/18 03:09:48;;;;;;;3.47;1.80;;;;;;;;;;5058459;27;89868;-59
2023/10/18 03:12:17;;;;;;;2.53;1.57;;;;;;;;;;5059888;27;89185;-60
2023/10/18 03:14:54;;;;;;;4.20;2.00;;;;;;;;;;5059945;27;88901;-59
2023/10/18 03:17:26;;;;;;;4.10;2.40;;;;;;;;;;5060660;27;88454;-60
2023/10/18 03:19:55;;;;;;;1.83;1.67;;;;;;;;;;5059588;27;89576;-61
2023/10/18 03:22:26;;;;;;;2.90;2.60;;;;;;;;;;5059989;27;89051;-60
2023/10/18 03:24:55;;;;;;;3.13;1.90;;;;;;;;;;5060363;27;88606;-60
2023/10/18 03:27:25;;;;;;;2.90;1.90;;;;;;;;;;5060684;27;87706;-59
2023/10/18 03:29:57;;;;;;;3.60;2.40;;;;;;;;;;5060155;27;88540;-60
2023/10/18 03:32:27;;;;;;;4.07;2.67;;;;;;;;;;5059779;27;87936;-59
2023/10/18 03:34:56;;;;;;;2.50;1.60;;;;;;;;;;5061577;27;88949;-59
2023/10/18 03:37:25;;;;;;;3.30;2.00;;;;;;;;;;5065599;27;87718;-60
2023/10/18 03:39:54;;;;;;;5.03;2.33;;;;;;;;;;5071345;27;89816;-60
2023/10/18 03:42:31;;;;;;;4.07;2.83;;;;;;;;;;5071328;27;90202;-58
2023/10/18 03:45:00;;;;;;;3.93;3.00;;;;;;;;;;5071627;27;88642;-63
2023/10/18 03:47:36;;;;;;;2.87;2.17;;;;;;;;;;5069101;27;87855;-63
2023/10/18 03:50:08;;;;;;;4.33;2.50;;;;;;;;;;5067325;27;88432;-64
2023/10/18 03:52:38;;;;;;;6.03;2.97;;;;;;;;;;5070849;27;88119;-55
2023/10/18 03:55:12;;;;;;;9.20;2.70;;;;;;;;;;5073065;27;88488;-56
2023/10/18 03:57:41;;;;;;;2.47;2.27;;;;;;;;;;5072189;27;87578;-57
2023/10/18 04:02:56;;;;;;;3.13;2.27;;;;;;;;;;5067018;27;88915;-56
2023/10/18 04:05:37;;;;;;;4.20;2.20;;;;;;;;;;5071724;27;89071;-56
2023/10/18 04:08:06;;;;;;;4.47;1.80;;;;;;;;;;5073004;27;87784;-56
2023/10/18 04:10:36;;;;;;;4.37;2.17;;;;;;;;;;5070155;27;89640;-57
2023/10/18 04:13:11;;;;;;;2.90;2.30;;;;;;;;;;5073205;27;89391;-57
2023/10/18 04:15:41;;;;;;;3.13;2.50;;;;;;;;;;5072278;27;88210;-57
2023/10/18 04:18:22;;;;;;;2.03;1.77;;;;;;;;;;5080453;27;87619;-56
2023/10/18 04:20:53;;;;;;;3.23;1.67;;;;;;;;;;5072029;27;87509;-56
2023/10/18 04:23:25;;;;;;;4.20;2.40;;;;;;;;;;5075842;27;89177;-56
2023/10/18 04:26:01;;;;;;;2.50;2.23;;;;;;;;;;5062980;27;87466;-56
2023/10/18 04:28:30;;;;;;;4.03;2.07;;;;;;;;;;5063324;27;87178;-56
2023/10/18 04:31:00;;;;;;;4.87;1.70;;;;;;;;;;5062794;27;88507;-61
2023/10/18 04:33:36;;;;;;;3.70;2.63;;;;;;;;;;5062096;27;89568;-62
2023/10/18 04:36:11;;;;;;;4.30;2.27;;;;;;;;;;5062707;27;89700;-62
2023/10/18 04:38:44;;;;;;;4.43;2.20;;;;;;;;;;5063106;27;87438;-62
2023/10/18 04:41:23;;;;;;;1.97;1.63;;;;;;;;;;5062391;27;89585;-62
2023/10/18 04:43:53;;;;;;;2.50;2.10;;;;;;;;;;5062917;27;87968;-62
2023/10/18 04:46:26;;;;;;;2.73;1.97;;;;;;;;;;5061744;27;88967;-62
2023/10/18 04:51:48;;;;;;;2.23;2.03;;;;;;;;;;5062683;27;89541;-62
2023/10/18 04:54:16;;;;;;;3.97;2.00;;;;;;;;;;5063081;27;90285;-62
2023/10/18 04:56:46;;;;;;;4.13;2.43;;;;;;;;;;5062287;27;88921;-62
2023/10/18 04:59:29;;;;;;;2.13;1.80;;;;;;;;;;5062221;27;87988;-62
2023/10/18 05:01:58;;;;;;;4.10;1.90;;;;;;;;;;5062710;27;89597;-62
2023/10/18 05:04:32;;;;;;;2.80;2.20;;;;;;;;;;5062610;27;91893;-62
2023/10/18 05:07:04;;;;;;;3.33;1.60;;;;;;;;;;5062246;27;88945;-62
2023/10/18 05:09:34;;;;;;;3.40;1.90;;;;;;;;;;5062828;27;87471;-62
2023/10/18 05:12:07;;;;;;;3.57;2.57;;;;;;;;;;5042272;28;89609;-61
2023/10/18 05:14:43;;;;;;;1.83;1.70;;;;;;;;;;5041968;28;88952;-61
2023/10/18 05:17:18;;;;;;;1.93;1.77;;;;;;;;;;5058825;27;88432;-61
2023/10/18 05:19:48;;;;;;;2.03;1.33;;;;;;;;;;5062200;27;87494;-62
2023/10/18 05:22:19;;;;;;;2.37;2.17;;;;;;;;;;5062436;27;89668;-62
2023/10/18 05:24:55;;;;;;;1.97;1.50;;;;;;;;;;5062643;27;88812;-62
2023/10/18 05:27:27;;;;;;;3.53;1.90;;;;;;;;;;5061885;27;89102;-62
2023/10/18 05:29:57;;;;;;;1.73;1.57;;;;;;;;;;5062217;27;87480;-62
2023/10/18 05:32:38;;;;;;;2.60;1.60;;;;;;;;;;5061692;27;89222;-61
2023/10/18 05:35:26;;;;;;;2.80;1.80;;;;;;;;;;5061728;27;89209;-62
2023/10/18 05:38:06;;;;;;;2.00;1.43;;;;;;;;;;5062167;27;88937;-61
2023/10/18 05:40:45;;;;;;;2.90;1.47;;;;;;;;;;5061830;27;87417;-62
2023/10/18 05:43:22;;;;;;;1.63;1.27;;;;;;;;;;5062037;27;88532;-62
2023/10/18 05:45:55;;;;;;;1.63;1.20;;;;;;;;;;5061156;27;89148;-63
2023/10/18 05:48:24;;;;;;;2.90;2.17;;;;;;;;;;5061794;27;87703;-61
2023/10/18 05:51:03;;;;;;;2.07;1.30;;;;;;;;;;5061562;27;87869;-62
2023/10/18 05:53:32;;;;;;;2.77;1.83;;;;;;;;;;5061396;27;89691;-62
2023/10/18 05:56:00;;;;;;;2.80;1.60;;;;;;;;;;5061395;27;89396;-62
2023/10/18 05:58:29;;;;;;;3.33;1.30;;;;;;;;;;5061004;27;88684;-62
2023/10/18 06:00:58;;;;;;;2.43;1.70;;;;;;;;;;5061482;27;87591;-61
2023/10/18 06:03:27;;;;;;;2.07;1.70;;;;;;;;;;5061357;27;89349;-62
2023/10/18 06:05:57;;;;;;;5.27;1.60;;;;;;;;;;5059834;27;88842;-64
2023/10/18 06:08:26;;;;;;;5.67;2.20;;;;;;;;;;5061104;27;87504;-64
2023/10/18 06:10:56;;;;;;;2.83;1.77;;;;;;;;;;5059847;27;87632;-64
2023/10/18 06:13:27;;;;;;;1.47;0.87;;;;;;;;;;5060233;27;89530;-63
2023/10/18 06:15:58;;;;;;;3.93;1.93;;;;;;;;;;5060431;27;92905;-63
2023/10/18 06:18:32;;;;;;;1.43;1.33;;;;;;;;;;5060529;27;89847;-57
2023/10/18 06:21:11;;;;;;;4.50;1.70;;;;;;;;;;5058824;27;88453;-63
2023/10/18 06:23:39;;;;;;;1.03;0.90;;;;;;;;;;5061428;27;89593;-60
2023/10/18 06:28:54;;;;;;;4.33;2.43;;;;;;;;;;5060496;27;87700;-64
2023/10/18 06:31:24;;;;;;;2.07;1.67;;;;;;;;;;5061366;27;87628;-61
2023/10/18 06:33:56;;;;;;;2.40;1.80;;;;;;;;;;5061316;27;89621;-60
2023/10/18 06:36:26;;;;;;;2.17;1.53;;;;;;;;;;5061484;27;88014;-61
2023/10/18 06:38:56;;;;;;;5.40;2.30;;;;;;;;;;5061010;27;88764;-58
2023/10/18 06:41:29;;;;;;;2.13;1.90;;;;;;;;;;5060859;27;87826;-61
2023/10/18 06:43:58;;;;;;;3.10;2.07;;;;;;;;;;5053486;27;88367;-61
2023/10/18 06:46:27;;;;;;;4.13;1.57;;;;;;;;;;5042407;27;89040;-61
2023/10/18 06:48:57;;;;;;;4.23;1.60;;;;;;;;;;5060211;27;88769;-62
2023/10/18 06:51:44;;;;;;;1.47;1.37;;;;;;;;;;5052213;27;87443;-62
2023/10/18 06:54:23;;;;;;;4.17;1.10;;;;;;;;;;5040512;28;89949;-63
2023/10/18 06:56:53;;;;;;;2.83;1.67;;;;;;;;;;5040209;28;88992;-63
2023/10/18 06:59:27;;;;;;;1.67;1.40;;;;;;;;;;5057223;27;87748;-63
2023/10/18 07:01:58;;;;;;;1.63;1.40;;;;;;;;;;5041146;28;87396;-63
2023/10/18 07:04:28;;;;;;;1.47;1.27;;;;;;;;;;5059053;27;89609;-63
2023/10/18 07:06:59;;;;;;;2.13;1.47;;;;;;;;;;5060138;27;92586;-63
2023/10/18 07:09:31;;;;;;;3.77;1.40;;;;;;;;;;5060493;27;90387;-63
2023/10/18 07:12:04;;;;;;;2.30;1.60;;;;;;;;;;5064691;27;87459;-64
2023/10/18 07:14:32;;;;;;;2.13;1.60;;;;;;;;;;5063779;27;89764;-63
2023/10/18 07:17:04;;;;;;;0.83;0.83;;;;;;;;;;5056864;27;89166;-63
2023/10/18 07:19:41;;;;;;;1.70;1.07;;;;;;;;;;5063056;27;88937;-63
2023/10/18 07:22:17;;;;;;;1.87;1.30;;;;;;;;;;5064552;27;87293;-63
2023/10/18 07:24:53;;;;;;;1.10;1.00;;;;;;;;;;5064096;27;89774;-63
2023/10/18 07:27:23;;;;;;;1.13;1.00;;;;;;;;;;5063285;27;89130;-63
2023/10/18 07:29:51;;;;;;;4.57;1.43;;;;;;;;;;5063707;27;88640;-63
2023/10/18 07:32:23;;;;;;;1.17;1.00;;;;;;;;;;5063191;27;88163;-63
2023/10/18 07:34:54;;;;;;;2.40;1.03;;;;;;;;;;5048142;27;89751;-63
2023/10/18 07:37:25;;;;;;;5.50;1.67;;;;;;;;;;5063230;27;88809;-63
2023/10/18 07:40:08;;;;;;;3.17;1.10;;;;;;;;;;5063753;27;88582;-64
2023/10/18 07:42:41;;;;;;;3.67;1.40;;;;;;;;;;5063559;27;87658;-64
2023/10/18 07:45:14;;;;;;;1.10;0.87;;;;;;;;;;5063776;27;89663;-64
2023/10/18 07:47:43;;;;;;;1.03;1.00;;;;;;;;;;5063127;27;89141;-63
2023/10/18 07:50:41;;;;;;;1.23;1.10;;;;;;;;;;5063164;27;87773;-63
2023/10/18 07:53:14;;;;;;;2.10;1.17;;;;;;;;;;5043743;27;87495;-63
2023/10/18 07:55:42;;;;;;;1.03;0.80;;;;;;;;;;5043086;28;89577;-63
2023/10/18 07:58:23;;;;;;;1.10;0.97;;;;;;;;;;5053814;27;89969;-63
2023/10/18 08:01:08;;;;;;;2.07;1.00;;;;;;;;;;5063445;27;89838;-64
2023/10/18 08:03:38;;;;;;;2.07;1.10;;;;;;;;;;5063715;27;87625;-63
2023/10/18 08:06:15;;;;;;;1.23;1.10;;;;;;;;;;5063488;27;89707;-64
2023/10/18 08:08:46;;;;;;;1.13;1.00;;;;;;;;;;5062694;27;91511;-64
2023/10/18 08:11:15;;;;;;;2.23;1.10;;;;;;;;;;5062720;27;89197;-64
2023/10/18 08:13:46;;;;;;;0.70;0.70;;;;;;;;;;5063136;27;87679;-64
2023/10/18 08:16:20;;;;;;;1.20;1.00;;;;;;;;;;5063473;27;90818;-63
2023/10/18 08:18:57;;;;;;;2.23;1.13;;;;;;;;;;5062545;27;89050;-54
2023/10/18 08:21:36;;;;;;;1.33;1.23;;;;;;;;;;5062039;27;87675;-56
2023/10/18 08:24:14;;;;;;;0.70;0.70;;;;;;;;;;5062486;27;88341;-58
2023/10/18 08:26:47;;;;;;;0.87;0.83;;;;;;;;;;5063053;27;89680;-58
2023/10/18 08:29:15;;;;;;;2.53;1.03;;;;;;;;;;5062517;27;89187;-58
2023/10/18 08:31:48;;;;;;;1.03;0.83;;;;;;;;;;5063086;27;88688;-58
2023/10/18 08:34:18;;;;;;;0.70;0.67;;;;;;;;;;5063020;27;87590;-58
2023/10/18 08:36:48;;;;;;;1.77;1.10;;;;;;;;;;5062893;27;89571;-58
2023/10/18 08:39:25;;;;;;;2.43;1.33;;;;;;;;;;5062428;27;88977;-59
2023/10/18 08:41:55;;;;;;;1.20;1.00;;;;;;;;;;5062754;27;87726;-59
2023/10/18 08:44:26;;;;;;;1.43;1.20;;;;;;;;;;5062876;27;87543;-58
2023/10/18 08:47:03;;;;;;;2.00;1.67;;;;;;;;;;5061819;27;89330;-58
2023/10/18 08:49:33;;;;;;;1.43;1.13;;;;;;;;;;5062917;27;89691;-57
2023/10/18 08:52:06;;;;;;;1.90;1.00;;;;;;;;;;5050915;27;90372;-58
2023/10/18 08:54:41;;;;;;;31.03;15.93;;;;;;;;;;5062757;27;87597;-55
2023/10/18 08:57:10;;;;;;;43.87;26.40;;;;;;;;;;5061502;27;88578;-55
2023/10/18 08:59:48;;;;;;;37.47;23.47;;;;;;;;;;5061729;27;87997;-59
2023/10/18 09:02:18;;;;;;;34.83;21.87;;;;;;;;;;5061528;27;88866;-58
2023/10/18 09:04:48;;;;;;;40.07;19.57;;;;;;;;;;5062230;27;87595;-59
2023/10/18 09:07:22;;;;;;;26.73;16.77;;;;;;;;;;5061530;27;88322;-57
2023/10/18 09:09:56;;;;;;;24.40;15.50;;;;;;;;;;5061040;27;88080;-57
2023/10/18 09:13:03;;;;;;;21.83;13.37;;;;;;;;;;5061312;27;88850;-57
2023/10/18 09:15:28;;;;;;;18.53;12.20;;;;;;;;;;5064040;27;88050;-57
2023/10/18 09:17:57;;;;;;;16.00;10.70;;;;;;;;;;5061672;27;88548;-57
2023/10/18 09:20:29;;;;;;;14.67;9.63;;;;;;;;;;5060694;27;89121;-58
2023/10/18 09:23:01;;;;;;;15.57;9.67;;;;;;;;;;5062691;27;88850;-58
2023/10/18 09:25:47;;;;;;;14.50;9.00;;;;;;;;;;5062814;27;87451;-57
2023/10/18 09:28:20;;;;;;;11.17;5.60;;;;;;;;;;5041926;27;89450;-57
2023/10/18 09:30:49;;;;;;;9.63;5.37;;;;;;;;;;5050176;27;91811;-57
2023/10/18 09:33:18;;;;;;;5.70;3.63;;;;;;;;;;5062273;27;87654;-62
2023/10/18 09:35:49;;;;;;;5.93;3.80;;;;;;;;;;5062486;27;87626;-57
2023/10/18 09:38:18;;;;;;;4.07;2.63;;;;;;;;;;5061762;27;89489;-57
2023/10/18 09:40:48;;;;;;;4.20;2.87;;;;;;;;;;5060978;27;90037;-57
2023/10/18 09:43:17;;;;;;;2.73;1.53;;;;;;;;;;5061778;27;90574;-57
2023/10/18 09:45:45;;;;;;;3.93;1.93;;;;;;;;;;5062068;27;87338;-57
2023/10/18 09:48:13;;;;;;;2.60;1.73;;;;;;;;;;5061754;27;89521;-59
2023/10/18 09:50:42;;;;;;;3.30;1.90;;;;;;;;;;5061872;27;89178;-59
2023/10/18 09:53:10;;;;;;;3.03;2.43;;;;;;;;;;5061638;27;88832;-58
2023/10/18 09:55:42;;;;;;;2.33;1.47;;;;;;;;;;5061864;27;87704;-59
2023/10/18 09:58:18;;;;;;;1.80;1.50;;;;;;;;;;5061746;27;88423;-53
2023/10/18 10:00:55;;;;;;;2.53;1.47;;;;;;;;;;5061672;27;89138;-58
2023/10/18 10:03:25;;;;;;;4.00;1.73;;;;;;;;;;5061734;27;87666;-58
2023/10/18 10:05:57;;;;;;;4.43;1.40;;;;;;;;;;5064416;27;88008;-58
2023/10/18 10:08:30;;;;;;;1.70;1.57;;;;;;;;;;5079418;27;89193;-57
2023/10/18 10:11:12;;;;;;;3.27;1.70;;;;;;;;;;5082193;27;89125;-58
2023/10/18 10:13:44;;;;;;;1.67;1.57;;;;;;;;;;5081877;27;87315;-57
2023/10/18 10:16:13;;;;;;;1.23;1.13;;;;;;;;;;5082210;27;87584;-57
2023/10/18 10:18:43;;;;;;;2.70;1.17;;;;;;;;;;5081341;27;88839;-57
2023/10/18 10:21:12;;;;;;;1.40;1.30;;;;;;;;;;5082053;27;87977;-58
2023/10/18 10:23:41;;;;;;;1.47;1.30;;;;;;;;;;5082180;27;87808;-57
2023/10/18 10:26:13;;;;;;;1.70;1.50;;;;;;;;;;5081923;27;87618;-58
2023/10/18 10:29:33;;;;;;;2.27;1.10;;;;;;;;;;5081657;27;88657;-58
2023/10/18 10:31:58;;;;;;;0.70;0.70;;;;;;;;;;5081052;27;90083;-58
2023/10/18 10:34:27;;;;;;;2.37;1.53;;;;;;;;;;5081693;27;89867;-58
2023/10/18 10:37:05;;;;;;;1.47;1.30;;;;;;;;;;5081751;27;87525;-58
2023/10/18 10:39:35;;;;;;;2.50;1.00;;;;;;;;;;5081242;27;88681;-58
2023/10/18 10:42:19;;;;;;;1.23;0.87;;;;;;;;;;5081791;27;90008;-58
2023/10/18 10:45:02;;;;;;;5.93;2.10;;;;;;;;;;5080717;27;88831;-58
2023/10/18 10:47:42;;;;;;;2.20;1.57;;;;;;;;;;5081800;27;87619;-58
2023/10/18 10:50:11;;;;;;;1.47;1.37;;;;;;;;;;5081372;27;89762;-58
2023/10/18 10:52:44;;;;;;;1.67;1.20;;;;;;;;;;5081563;27;88947;-58
2023/10/18 10:55:21;;;;;;;1.97;1.40;;;;;;;;;;5081614;27;88710;-57
2023/10/18 10:57:50;;;;;;;2.00;1.37;;;;;;;;;;5081126;27;87821;-58
2023/10/18 11:00:36;;;;;;;1.33;1.03;;;;;;;;;;5080884;27;88704;-58
2023/10/18 11:03:25;;;;;;;2.73;1.47;;;;;;;;;;5081205;27;87307;-57
2023/10/18 11:05:58;;;;;;;1.10;0.87;;;;;;;;;;5080831;27;87662;-57
2023/10/18 11:08:28;;;;;;;1.10;1.00;;;;;;;;;;5081562;27;87571;-58
2023/10/18 11:10:57;;;;;;;3.43;1.43;;;;;;;;;;5080771;27;89748;-58
2023/10/18 11:13:30;;;;;;;1.33;1.00;;;;;;;;;;5080945;27;87325;-58
2023/10/18 11:16:03;;;;;;;5.47;1.30;;;;;;;;;;5080853;27;87815;-58
2023/10/18 11:18:39;;;;;;;2.70;1.00;;;;;;;;;;5081317;27;87488;-58
2023/10/18 11:21:18;;;;;;;1.10;1.00;;;;;;;;;;5080572;27;89675;-58
2023/10/18 11:23:47;;;;;;;1.40;1.13;;;;;;;;;;5080407;27;89978;-58
2023/10/18 11:26:24;;;;;;;2.67;1.00;;;;;;;;;;5080850;27;89773;-58
2023/10/18 11:28:56;;;;;;;0.97;0.97;;;;;;;;;;5081164;27;87512;-58
2023/10/18 11:31:27;;;;;;;1.20;1.10;;;;;;;;;;5080882;27;89688;-58
2023/10/18 11:34:05;;;;;;;1.47;1.10;;;;;;;;;;5080345;27;87346;-58
2023/10/18 11:36:33;;;;;;;2.57;1.10;;;;;;;;;;5080918;27;87353;-58
2023/10/18 11:39:07;;;;;;;2.07;1.17;;;;;;;;;;5080897;27;87663;-58
2023/10/18 11:41:36;;;;;;;3.03;1.00;;;;;;;;;;5081320;27;88508;-58
2023/10/18 11:44:06;;;;;;;0.70;0.70;;;;;;;;;;5080538;27;88024;-58
2023/10/18 11:46:49;;;;;;;1.37;1.17;;;;;;;;;;5080892;27;87744;-58
2023/10/18 11:49:20;;;;;;;1.60;0.90;;;;;;;;;;5080235;27;87664;-58
2023/10/18 11:51:49;;;;;;;0.90;0.80;;;;;;;;;;5080560;27;89943;-58
2023/10/18 11:54:31;;;;;;;1.80;0.90;;;;;;;;;;5080775;27;88165;-58
2023/10/18 11:56:59;;;;;;;1.33;1.23;;;;;;;;;;5083345;27;88761;-58
2023/10/18 11:59:29;;;;;;;0.87;0.87;;;;;;;;;;5084405;27;87510;-58
2023/10/18 12:02:04;;;;;;;1.93;1.20;;;;;;;;;;5084322;27;89647;-58
2023/10/18 12:04:38;;;;;;;1.83;0.80;;;;;;;;;;5083933;27;89274;-58
2023/10/18 12:07:08;;;;;;;1.03;0.93;;;;;;;;;;5083824;27;87906;-58
2023/10/18 12:09:44;;;;;;;1.97;1.00;;;;;;;;;;5084067;27;87614;-58
2023/10/18 12:12:14;;;;;;;2.17;0.90;;;;;;;;;;5083922;27;87588;-58
2023/10/18 12:14:42;;;;;;;1.30;1.03;;;;;;;;;;5083317;27;90247;-58
2023/10/18 12:17:13;;;;;;;2.87;1.47;;;;;;;;;;5083767;27;87538;-58
2023/10/18 12:19:41;;;;;;;1.50;1.40;;;;;;;;;;5083284;27;87627;-58
2023/10/18 12:22:15;;;;;;;1.93;1.17;;;;;;;;;;5083787;27;89479;-58
2023/10/18 12:24:43;;;;;;;1.50;1.03;;;;;;;;;;5083510;27;87997;-58
2023/10/18 12:27:33;;;;;;;1.63;1.10;;;;;;;;;;5083590;27;88947;-58
2023/10/18 12:30:09;;;;;;;1.07;1.03;;;;;;;;;;5083685;27;87119;-58
2023/10/18 12:33:04;;;;;;;1.57;1.37;;;;;;;;;;5083359;27;90163;-58
2023/10/18 12:35:33;;;;;;;1.17;1.07;;;;;;;;;;5083314;27;89134;-58
2023/10/18 12:38:07;;;;;;;1.40;0.83;;;;;;;;;;5083296;27;87716;-58
2023/10/18 12:40:41;;;;;;;1.90;1.40;;;;;;;;;;5083224;27;88004;-58
2023/10/18 12:43:17;;;;;;;1.57;1.37;;;;;;;;;;5083693;27;89972;-57
2023/10/18 12:45:46;;;;;;;4.73;1.67;;;;;;;;;;5083296;27;88134;-57
2023/10/18 12:48:21;;;;;;;2.23;1.33;;;;;;;;;;5082961;27;88875;-57
2023/10/18 12:50:51;;;;;;;2.90;1.40;;;;;;;;;;5083519;27;87626;-57
2023/10/18 12:53:38;;;;;;;3.83;1.57;;;;;;;;;;5083318;27;89626;-58
2023/10/18 12:56:30;;;;;;;1.37;0.90;;;;;;;;;;5083378;27;87883;-57
2023/10/18 12:58:58;;;;;;;1.70;0.80;;;;;;;;;;5082943;27;87739;-57
2023/10/18 13:01:32;;;;;;;2.43;1.40;;;;;;;;;;5083096;27;87216;-57
2023/10/18 13:04:06;;;;;;;2.53;1.27;;;;;;;;;;5083613;27;87202;-57
2023/10/18 13:06:42;;;;;;;2.70;1.27;;;;;;;;;;5082602;27;90073;-57
2023/10/18 13:09:18;;;;;;;0.83;0.83;;;;;;;;;;5082291;27;88776;-57
2023/10/18 13:11:46;;;;;;;3.13;1.00;;;;;;;;;;5083079;27;87636;-58
2023/10/18 13:14:16;;;;;;;1.40;1.20;;;;;;;;;;5082919;27;89854;-57
2023/10/18 13:16:44;;;;;;;1.97;1.40;;;;;;;;;;5082826;27;89138;-57
2023/10/18 13:19:15;;;;;;;2.13;1.30;;;;;;;;;;5082907;27;88839;-57
2023/10/18 13:21:44;;;;;;;1.80;1.67;;;;;;;;;;5082965;27;87557;-57
2023/10/18 13:24:20;;;;;;;3.20;1.83;;;;;;;;;;5082612;27;88206;-57
2023/10/18 13:26:48;;;;;;;1.30;1.20;;;;;;;;;;5082703;27;88024;-58
2023/10/18 13:29:29;;;;;;;1.17;1.07;;;;;;;;;;5082573;27;88061;-57
2023/10/18 13:31:58;;;;;;;3.70;1.57;;;;;;;;;;5082146;27;88346;-57
2023/10/18 13:34:32;;;;;;;1.37;1.13;;;;;;;;;;5082533;27;89643;-57
2023/10/18 13:37:04;;;;;;;2.70;1.20;;;;;;;;;;5082828;27;88110;-57
2023/10/18 13:39:33;;;;;;;2.60;1.80;;;;;;;;;;5082626;27;87899;-57
2023/10/18 13:42:02;;;;;;;3.77;1.50;;;;;;;;;;5082799;27;87635;-57
2023/10/18 13:44:31;;;;;;;1.40;1.17;;;;;;;;;;5082062;27;88600;-57
2023/10/18 13:47:00;;;;;;;2.90;1.50;;;;;;;;;;5082353;27;88008;-57
2023/10/18 13:49:42;;;;;;;1.43;1.20;;;;;;;;;;5082431;27;88918;-57
2023/10/18 13:52:12;;;;;;;1.40;1.30;;;;;;;;;;5082663;27;87388;-57
2023/10/18 13:54:41;;;;;;;1.30;1.23;;;;;;;;;;5082187;27;88763;-57
2023/10/18 13:57:10;;;;;;;2.33;1.73;;;;;;;;;;5081462;27;90154;-57
2023/10/18 13:59:39;;;;;;;1.07;0.97;;;;;;;;;;5070245;27;89824;-57
2023/10/18 14:02:07;;;;;;;1.33;0.90;;;;;;;;;;5061880;27;87600;-57
2023/10/18 14:04:36;;;;;;;1.93;1.40;;;;;;;;;;5060918;27;88522;-57
2023/10/18 14:07:06;;;;;;;1.50;0.93;;;;;;;;;;5061418;27;87884;-57
2023/10/18 14:09:34;;;;;;;1.77;1.07;;;;;;;;;;5061801;27;88907;-57
2023/10/18 14:12:04;;;;;;;1.70;1.10;;;;;;;;;;5053041;27;87637;-57
2023/10/18 14:14:36;;;;;;;1.77;1.20;;;;;;;;;;5037746;28;89606;-57
2023/10/18 14:17:05;;;;;;;3.37;1.83;;;;;;;;;;5037943;28;87837;-57
2023/10/18 14:19:33;;;;;;;3.53;1.60;;;;;;;;;;5036680;27;87745;-57
2023/10/18 14:22:02;;;;;;;2.70;1.50;;;;;;;;;;5038018;28;88840;-58
2023/10/18 14:24:32;;;;;;;2.60;1.43;;;;;;;;;;5037679;27;88125;-57
2023/10/18 14:27:03;;;;;;;1.30;1.00;;;;;;;;;;5038143;28;87926;-57
2023/10/18 14:29:32;;;;;;;4.43;2.00;;;;;;;;;;5037699;28;87715;-57
2023/10/18 14:32:02;;;;;;;1.77;1.27;;;;;;;;;;5038199;27;87415;-57
2023/10/18 14:34:31;;;;;;;3.03;1.90;;;;;;;;;;5037861;28;88689;-58
2023/10/18 14:36:59;;;;;;;1.97;1.20;;;;;;;;;;5037583;28;88052;-57
2023/10/18 14:39:28;;;;;;;2.33;1.53;;;;;;;;;;5038028;28;87838;-58
2023/10/18 14:42:08;;;;;;;2.07;1.30;;;;;;;;;;5037945;27;87551;-57
2023/10/18 14:44:37;;;;;;;4.50;1.70;;;;;;;;;;5050405;27;88009;-58
2023/10/18 14:47:07;;;;;;;4.50;1.70;;;;;;;;;;5056846;27;89131;-57
2023/10/18 14:49:39;;;;;;;2.70;1.63;;;;;;;;;;5057796;27;88532;-56
2023/10/18 14:52:11;;;;;;;4.73;1.40;;;;;;;;;;5058314;27;87564;-56
2023/10/18 14:54:42;;;;;;;1.80;1.40;;;;;;;;;;5058145;27;88088;-56
2023/10/18 14:57:16;;;;;;;2.07;1.30;;;;;;;;;;5057781;27;89178;-56
2023/10/18 14:59:45;;;;;;;2.67;1.13;;;;;;;;;;5057327;27;87505;-57
2023/10/18 15:02:13;;;;;;;1.93;1.07;;;;;;;;;;5058032;27;87681;-56
2023/10/18 15:04:42;;;;;;;2.00;1.40;;;;;;;;;;5057925;27;89712;-57
2023/10/18 15:07:12;;;;;;;1.33;1.23;;;;;;;;;;5057988;27;87484;-57
2023/10/18 15:09:41;;;;;;;1.53;1.17;;;;;;;;;;5057756;27;87531;-58
2023/10/18 15:12:10;;;;;;;0.87;0.87;;;;;;;;;;5057129;27;88159;-58
2023/10/18 15:14:43;;;;;;;2.00;1.57;;;;;;;;;;5057585;27;89167;-57
2023/10/18 15:17:12;;;;;;;3.50;1.47;;;;;;;;;;5057821;27;88066;-58
2023/10/18 15:19:40;;;;;;;2.33;1.30;;;;;;;;;;5057140;27;88765;-58
2023/10/18 15:22:11;;;;;;;1.17;0.97;;;;;;;;;;5057866;27;87624;-58